Time;durP1;ratioP1;P1;durP2;ratioP2;P2;SDS_P1;SDS_P2;PMS_P1;PMS_P2;Temp;Humidity;BMP_temperature;BMP_pressure;BME280_temperature;BME280_humidity;BME280_pressure;Samples;Min_cycle;Max_cycle;Signal;HPM_P1;HPM_P2
2021/05/30 00:00:27;;;;;;;6.65;5.42;;;;;;;14.48;75.20;99054.02;1741230;82;21576;-75
2021/05/30 00:02:53;;;;;;;7.40;5.78;;;;;;;14.47;75.24;99055.00;1744170;81;21089;-76
2021/05/30 00:05:20;;;;;;;5.80;5.12;;;;;;;14.57;75.08;99057.61;1741437;82;21044;-74
2021/05/30 00:07:46;;;;;;;6.65;5.95;;;;;;;14.50;75.21;99052.53;1742503;80;21030;-75
2021/05/30 00:10:13;;;;;;;5.55;5.05;;;;;;;14.39;75.49;99057.59;1742034;82;21089;-75
2021/05/30 00:12:40;;;;;;;6.22;5.50;;;;;;;14.38;75.56;99054.58;1741146;82;21151;-74
2021/05/30 00:15:09;;;;;;;6.30;5.70;;;;;;;14.49;75.34;99064.16;1741103;82;21585;-75
2021/05/30 00:17:37;;;;;;;8.10;5.58;;;;;;;14.47;75.37;99062.98;1743565;82;21585;-75
2021/05/30 00:20:10;;;;;;;5.83;4.83;;;;;;;14.36;75.61;99061.39;1742193;82;21074;-76
2021/05/30 00:22:38;;;;;;;8.18;5.22;;;;;;;14.30;75.89;99061.16;1741175;80;21094;-75
2021/05/30 00:25:06;;;;;;;9.28;5.85;;;;;;;14.35;75.78;99062.87;1741812;82;21331;-76
2021/05/30 00:27:36;;;;;;;6.70;5.50;;;;;;;14.36;75.79;99056.55;1740946;82;21060;-75
2021/05/30 00:30:03;;;;;;;6.05;5.45;;;;;;;14.30;76.00;99054.50;1743929;80;21180;-76
2021/05/30 00:32:29;;;;;;;6.00;4.65;;;;;;;14.23;76.16;99054.23;1743554;82;21052;-76
2021/05/30 00:34:56;;;;;;;5.22;4.70;;;;;;;14.22;76.19;99050.75;1741331;81;21128;-75
2021/05/30 00:37:22;;;;;;;6.55;4.70;;;;;;;14.33;75.91;99056.86;1736201;82;22499;-75
2021/05/30 00:39:48;;;;;;;6.37;5.40;;;;;;;14.32;75.91;99063.16;1736565;82;21068;-76
2021/05/30 00:42:16;;;;;;;6.65;5.60;;;;;;;14.23;76.06;99065.73;1734447;82;21073;-76
2021/05/30 00:44:42;;;;;;;6.12;5.40;;;;;;;14.16;76.23;99068.63;1736278;82;21116;-76
2021/05/30 00:47:09;;;;;;;7.08;4.92;;;;;;;14.18;76.20;99065.81;1737248;81;21049;-75
2021/05/30 00:49:35;;;;;;;5.12;4.62;;;;;;;14.31;75.87;99073.44;1734947;82;21057;-75
2021/05/30 00:52:05;;;;;;;7.33;5.17;;;;;;;14.30;75.84;99065.14;1735975;82;21116;-76
2021/05/30 00:54:38;;;;;;;7.37;4.92;;;;;;;14.21;75.96;99069.52;1736292;82;21580;-76
2021/05/30 00:57:07;;;;;;;9.40;5.08;;;;;;;14.14;76.13;99065.27;1735596;82;21104;-77
2021/05/30 00:59:34;;;;;;;6.35;5.00;;;;;;;14.16;76.09;99068.63;1736682;82;21061;-77
2021/05/30 01:02:01;;;;;;;6.47;4.83;;;;;;;14.28;75.89;99075.08;1737236;82;21049;-76
2021/05/30 01:04:27;;;;;;;5.70;4.78;;;;;;;14.24;75.84;99075.36;1735196;82;21017;-76
2021/05/30 01:06:57;;;;;;;6.22;4.62;;;;;;;14.12;76.11;99072.58;1734806;82;21065;-76
2021/05/30 01:09:25;;;;;;;6.80;5.30;;;;;;;13.97;76.39;99078.86;1735617;82;21101;-76
2021/05/30 01:11:52;;;;;;;5.53;4.92;;;;;;;13.93;76.51;99074.32;1735322;82;21096;-76
2021/05/30 01:14:19;;;;;;;5.80;5.20;;;;;;;14.05;76.31;99083.44;1734690;82;21044;-76
2021/05/30 01:16:47;;;;;;;6.78;5.20;;;;;;;14.04;76.30;99070.66;1735411;82;21056;-76
2021/05/30 01:19:16;;;;;;;6.47;5.10;;;;;;;14.02;76.48;99073.11;1735771;82;21581;-76
2021/05/30 01:21:44;;;;;;;7.22;5.05;;;;;;;14.00;76.61;99070.61;1734010;82;21029;-76
2021/05/30 01:24:11;;;;;;;6.53;5.42;;;;;;;14.07;76.55;99069.52;1735318;82;21073;-76
2021/05/30 01:26:39;;;;;;;6.08;5.47;;;;;;;14.19;76.18;99061.67;1735692;82;21053;-75
2021/05/30 01:29:05;;;;;;;5.80;5.20;;;;;;;14.17;76.21;99059.67;1735936;82;21045;-75
2021/05/30 01:31:33;;;;;;;6.35;5.75;;;;;;;14.05;76.40;99060.38;1734853;82;21041;-76
2021/05/30 01:34:00;;;;;;;5.97;5.05;;;;;;;13.94;76.68;99067.20;1735778;81;21588;-76
2021/05/30 01:36:26;;;;;;;6.20;4.97;;;;;;;13.91;76.81;99067.00;1737748;81;21084;-76
2021/05/30 01:38:53;;;;;;;5.65;5.08;;;;;;;13.96;76.69;99069.70;1752588;80;21676;-76
2021/05/30 01:41:20;;;;;;;5.47;4.75;;;;;;;13.96;76.82;99068.38;1741222;82;21045;-75
2021/05/30 01:43:47;;;;;;;8.05;5.62;;;;;;;13.90;77.11;99069.31;1741121;82;21100;-76
2021/05/30 01:46:14;;;;;;;6.97;4.97;;;;;;;13.88;77.31;99076.58;1742025;80;21595;-76
2021/05/30 01:48:41;;;;;;;7.62;5.50;;;;;;;13.90;77.33;99070.64;1741366;82;21041;-76
2021/05/30 01:51:07;;;;;;;5.97;5.37;;;;;;;14.05;77.15;99074.13;1741239;82;21571;-75
2021/05/30 01:53:47;;;;;;;7.00;5.75;;;;;;;14.05;77.17;99068.81;1742472;82;21532;-75
2021/05/30 01:58:34;;;;;;;7.50;5.53;;;;;;;13.88;77.63;99078.41;1741129;82;21066;-75
2021/05/30 02:01:00;;;;;;;6.72;5.28;;;;;;;13.89;77.73;99076.93;1741386;82;21057;-76
2021/05/30 02:03:27;;;;;;;6.30;5.70;;;;;;;13.97;77.45;99076.20;1742143;81;21065;-76
2021/05/30 02:05:53;;;;;;;7.12;5.37;;;;;;;13.98;77.49;99081.02;1742546;82;21036;-75
2021/05/30 02:08:20;;;;;;;6.60;5.90;;;;;;;13.93;77.71;99076.98;1742331;82;21049;-76
2021/05/30 02:10:46;;;;;;;7.62;5.20;;;;;;;13.86;77.92;99069.73;1741489;82;21012;-76
2021/05/30 02:13:12;;;;;;;7.10;5.08;;;;;;;13.84;78.00;99065.91;1744312;80;21026;-76
2021/05/30 02:15:39;;;;;;;6.78;5.72;;;;;;;13.95;77.81;99065.37;1742127;82;21521;-75
2021/05/30 02:18:05;;;;;;;6.60;5.40;;;;;;;13.94;77.88;99069.86;1742492;82;21104;-75
2021/05/30 02:20:38;;;;;;;8.00;5.53;;;;;;;13.90;78.14;99065.32;1742068;82;21041;-76
2021/05/30 02:23:05;;;;;;;6.03;5.42;;;;;;;13.89;78.29;99066.80;1741731;81;21008;-76
2021/05/30 02:25:31;;;;;;;7.85;6.03;;;;;;;13.97;78.16;99068.73;1739812;82;21072;-76
2021/05/30 02:27:57;;;;;;;6.62;5.83;;;;;;;14.01;78.16;99072.77;1741061;82;21095;-75
2021/05/30 02:30:24;;;;;;;6.22;5.62;;;;;;;13.93;78.42;99078.30;1676031;85;21569;-75
2021/05/30 02:32:52;;;;;;;7.08;5.60;;;;;;;13.92;78.62;99082.45;1744533;80;22226;-75
2021/05/30 02:35:19;;;;;;;6.42;5.83;;;;;;;14.03;78.41;99074.80;1742130;82;22375;-75
2021/05/30 02:37:45;;;;;;;6.45;5.78;;;;;;;14.11;78.39;99088.17;1735945;81;21080;-75
2021/05/30 02:40:12;;;;;;;7.28;5.72;;;;;;;14.11;78.42;99090.02;1675458;85;21098;-75
2021/05/30 02:42:39;;;;;;;8.28;5.60;;;;;;;14.11;78.54;99088.68;1667032;85;21646;-75
2021/05/30 02:45:06;;;;;;;8.53;5.10;;;;;;;14.17;78.40;99096.05;1701057;84;21057;-75
2021/05/30 02:47:32;;;;;;;7.72;5.87;;;;;;;14.31;78.07;99094.72;1707269;83;22165;-75
2021/05/30 02:50:00;;;;;;;7.45;5.50;;;;;;;14.35;77.94;99098.78;1707772;83;22190;-76
2021/05/30 02:52:28;;;;;;;7.72;5.35;;;;;;;14.28;77.99;99095.85;1709020;83;21093;-75
2021/05/30 02:54:55;;;;;;;6.03;5.30;;;;;;;14.18;78.11;99085.76;1710388;83;21085;-75
2021/05/30 02:57:22;;;;;;;6.08;5.03;;;;;;;14.15;78.17;99092.71;1675733;85;21067;-76
2021/05/30 02:59:49;;;;;;;6.00;5.28;;;;;;;14.22;78.03;99091.97;1707111;83;21058;-76
2021/05/30 03:02:17;;;;;;;7.92;5.60;;;;;;;14.17;78.09;99082.27;1673050;85;21106;-75
2021/05/30 03:04:43;;;;;;;6.25;4.87;;;;;;;14.08;78.37;99088.48;1669889;85;21069;-76
2021/05/30 03:07:09;;;;;;;8.13;5.45;;;;;;;14.06;78.52;99094.42;1700120;84;21030;-76
2021/05/30 03:09:38;;;;;;;8.05;5.30;;;;;;;14.13;78.36;99095.52;1697458;83;21366;-76
2021/05/30 03:12:08;;;;;;;7.03;5.97;;;;;;;14.13;78.49;99103.50;1701930;83;21634;-76
2021/05/30 03:14:35;;;;;;;6.30;5.15;;;;;;;14.08;78.68;99100.45;1696761;83;21640;-76
2021/05/30 03:17:01;;;;;;;8.73;5.70;;;;;;;14.04;78.74;99096.38;1713313;83;21046;-76
2021/05/30 03:19:27;;;;;;;6.33;5.72;;;;;;;14.13;78.57;99103.50;1705342;83;21669;-76
2021/05/30 03:21:53;;;;;;;11.10;6.00;;;;;;;14.14;78.65;99101.16;1693888;85;21050;-76
2021/05/30 03:24:20;;;;;;;7.47;5.85;;;;;;;14.08;78.80;99108.42;1675037;86;21066;-76
2021/05/30 03:26:46;;;;;;;6.67;6.00;;;;;;;14.05;78.84;99103.38;1675902;85;21336;-76
2021/05/30 03:29:13;;;;;;;7.92;6.22;;;;;;;14.14;78.61;99107.81;1704257;84;21099;-77
2021/05/30 03:31:41;;;;;;;8.60;6.45;;;;;;;14.08;78.60;99111.91;1686810;85;21079;-76
2021/05/30 03:34:09;;;;;;;6.30;5.55;;;;;;;13.99;78.80;99103.48;1685459;85;21123;-76
2021/05/30 03:36:36;;;;;;;6.58;5.83;;;;;;;14.01;78.94;99103.34;1677043;85;21624;-76
2021/05/30 03:39:07;;;;;;;7.55;5.75;;;;;;;14.10;78.73;99101.12;1684425;85;21141;-75
2021/05/30 03:41:37;;;;;;;6.87;6.05;;;;;;;14.07;78.81;99102.75;1698083;84;21042;-75
2021/05/30 03:44:04;;;;;;;6.37;5.40;;;;;;;14.02;79.03;99109.83;1680512;83;21133;-75
2021/05/30 03:46:31;;;;;;;7.03;5.85;;;;;;;14.09;78.89;99106.08;1702926;83;21093;-75
2021/05/30 03:48:58;;;;;;;7.47;6.20;;;;;;;14.18;78.70;99105.70;1739786;82;21061;-75
2021/05/30 03:51:24;;;;;;;7.85;6.03;;;;;;;14.19;78.74;99111.38;1749331;82;21580;-75
2021/05/30 03:53:50;;;;;;;6.17;5.47;;;;;;;14.19;78.76;99102.06;1749284;80;21574;-75
2021/05/30 03:56:17;;;;;;;5.95;5.10;;;;;;;14.24;78.59;99105.94;1737898;82;21610;-75
2021/05/30 03:58:43;;;;;;;9.45;5.45;;;;;;;14.38;78.22;99106.45;1748605;82;21086;-75
2021/05/30 04:01:10;;;;;;;5.83;5.22;;;;;;;14.41;78.08;99104.81;1750015;81;21526;-75
2021/05/30 04:03:36;;;;;;;5.53;4.90;;;;;;;14.38;78.04;99103.79;1717956;83;21033;-75
2021/05/30 04:06:03;;;;;;;7.53;5.00;;;;;;;14.41;77.85;99114.12;1715502;83;21102;-75
2021/05/30 04:08:29;;;;;;;6.00;5.40;;;;;;;14.50;77.56;99113.25;1717260;83;21050;-74
2021/05/30 04:10:56;;;;;;;9.33;5.62;;;;;;;14.49;77.49;99119.55;1714103;83;21005;-74
2021/05/30 04:13:22;;;;;;;7.28;4.95;;;;;;;14.43;77.53;99112.98;1738734;82;21597;-74
2021/05/30 04:15:50;;;;;;;6.80;5.45;;;;;;;14.49;77.35;99103.59;1697862;83;21113;-73
2021/05/30 04:18:16;;;;;;;6.55;5.20;;;;;;;14.55;76.93;99099.01;1688665;85;21078;-78
2021/05/30 04:20:42;;;;;;;6.97;5.40;;;;;;;14.50;76.69;99099.95;1687907;85;21094;-77
2021/05/30 04:23:09;;;;;;;6.20;4.92;;;;;;;14.47;76.62;99102.89;1677439;83;21066;-77
2021/05/30 04:25:37;;;;;;;6.87;4.95;;;;;;;14.60;76.30;99098.54;1708877;83;21037;-77
2021/05/30 04:28:04;;;;;;;5.17;4.67;;;;;;;14.72;76.03;99101.87;1708966;84;21619;-77
2021/05/30 04:30:32;;;;;;;6.12;4.85;;;;;;;14.76;75.61;99097.92;1709369;82;21016;-79
2021/05/30 04:33:02;;;;;;;6.75;5.20;;;;;;;14.74;75.36;99093.23;1694497;84;21736;-79
2021/05/30 04:35:28;;;;;;;7.80;5.28;;;;;;;14.94;75.11;99099.77;1749333;82;21581;-79
2021/05/30 04:37:55;;;;;;;5.92;4.60;;;;;;;15.03;74.68;99089.52;1748983;82;21080;-79
2021/05/30 04:40:24;;;;;;;7.05;4.60;;;;;;;15.02;73.96;99082.52;1714519;83;21081;-80
2021/05/30 04:42:50;;;;;;;6.10;4.90;;;;;;;15.02;73.75;99086.52;1705925;82;21608;-81
2021/05/30 04:45:19;;;;;;;8.28;5.33;;;;;;;15.16;73.67;99084.63;1741698;82;21081;-80
2021/05/30 04:47:47;;;;;;;5.97;5.35;;;;;;;15.23;73.05;99083.03;1722010;82;21097;-80
2021/05/30 04:50:16;;;;;;;7.10;5.33;;;;;;;15.18;73.20;99086.66;1680724;85;21088;-81
2021/05/30 04:52:42;;;;;;;8.03;5.22;;;;;;;15.24;72.78;99094.03;1693371;83;21266;-80
2021/05/30 04:55:14;;;;;;;6.05;4.78;;;;;;;15.30;72.42;99094.41;1704808;83;21160;-81
2021/05/30 04:57:40;;;;;;;8.33;5.28;;;;;;;15.21;72.50;99087.66;1711270;83;21078;-81
2021/05/30 05:00:08;;;;;;;6.70;4.83;;;;;;;15.14;72.65;99082.63;1711935;83;21053;-81
2021/05/30 05:02:35;;;;;;;5.78;5.03;;;;;;;15.30;72.59;99079.25;1693133;84;21018;-81
2021/05/30 05:05:01;;;;;;;6.30;5.20;;;;;;;15.40;72.33;99080.50;1741378;82;21077;-81
2021/05/30 05:07:28;;;;;;;6.53;5.37;;;;;;;15.38;72.25;99081.13;1712137;83;21106;-82
2021/05/30 05:09:55;;;;;;;5.60;5.10;;;;;;;15.34;72.21;99079.27;1722803;83;21089;-80
2021/05/30 05:12:22;;;;;;;8.40;6.12;;;;;;;15.42;72.01;99086.48;1711577;83;21087;-81
2021/05/30 05:14:49;;;;;;;6.37;5.78;;;;;;;15.42;72.16;99078.49;1716862;83;21105;-82
2021/05/30 05:17:15;;;;;;;8.20;5.03;;;;;;;15.39;72.18;99076.15;1712141;83;21073;-82
2021/05/30 05:19:41;;;;;;;6.20;4.97;;;;;;;15.34;72.21;99075.78;1710813;83;21556;-80
2021/05/30 05:22:08;;;;;;;9.95;5.20;;;;;;;15.35;72.23;99085.45;1707014;83;21021;-82
2021/05/30 05:24:34;;;;;;;8.20;5.08;;;;;;;15.34;72.36;99083.77;1715247;83;21110;-80
2021/05/30 05:27:01;;;;;;;4.85;4.35;;;;;;;15.34;72.27;99089.10;1723140;83;21572;-81
2021/05/30 05:29:27;;;;;;;6.33;4.70;;;;;;;15.39;72.29;99090.80;1712783;83;21070;-81
2021/05/30 05:31:53;;;;;;;5.50;4.50;;;;;;;15.52;72.03;99092.55;1714604;83;21056;-81
2021/05/30 05:34:21;;;;;;;8.38;4.65;;;;;;;15.56;71.88;99094.41;1717121;83;21043;-81
2021/05/30 05:36:47;;;;;;;6.72;4.30;;;;;;;15.55;71.88;99097.59;1720184;83;21065;-81
2021/05/30 05:39:15;;;;;;;6.95;4.15;;;;;;;15.51;71.90;99090.91;1701676;84;21069;-81
2021/05/30 05:41:42;;;;;;;6.47;5.55;;;;;;;15.53;71.57;99102.22;1748807;80;21026;-82
2021/05/30 05:44:09;;;;;;;8.88;5.12;;;;;;;15.58;71.63;99088.44;1788907;80;21120;-82
2021/05/30 05:46:35;;;;;;;6.37;4.95;;;;;;;15.52;71.49;99092.55;1789020;80;21611;-81
2021/05/30 05:49:01;;;;;;;5.25;3.92;;;;;;;15.46;71.47;99082.54;1789320;80;21056;-81
2021/05/30 05:51:30;;;;;;;7.00;4.00;;;;;;;15.51;71.21;99086.05;1751517;80;21049;-82
2021/05/30 05:53:58;;;;;;;7.33;4.60;;;;;;;15.59;70.76;99085.27;1756068;80;21001;-76
2021/05/30 05:56:26;;;;;;;4.80;4.40;;;;;;;15.59;70.25;99081.27;1774400;80;21080;-77
2021/05/30 05:58:54;;;;;;;6.30;4.47;;;;;;;15.60;70.29;99082.95;1728968;83;21604;-78
2021/05/30 06:01:21;;;;;;;6.75;4.28;;;;;;;15.67;70.39;99080.01;1736595;82;21041;-78
2021/05/30 06:03:47;;;;;;;8.85;5.28;;;;;;;15.83;70.14;99081.47;1783526;80;21049;-78
2021/05/30 06:06:17;;;;;;;6.50;5.40;;;;;;;15.84;69.82;99077.81;1750322;80;21587;-79
2021/05/30 06:08:43;;;;;;;7.50;4.40;;;;;;;15.83;69.46;99086.80;1736479;82;21017;-80
2021/05/30 06:11:10;;;;;;;5.22;4.72;;;;;;;15.77;69.46;99091.39;1741595;82;21042;-78
2021/05/30 06:13:37;;;;;;;9.13;5.20;;;;;;;15.89;69.90;99092.84;1750847;81;21052;-78
2021/05/30 06:16:05;;;;;;;9.33;5.90;;;;;;;15.99;69.99;99090.03;1743942;82;21018;-77
2021/05/30 06:18:33;;;;;;;8.55;5.70;;;;;;;16.09;70.04;99091.26;1748414;82;21068;-77
2021/05/30 06:21:00;;;;;;;7.15;5.25;;;;;;;16.24;69.51;99089.31;1748480;80;21065;-77
2021/05/30 06:23:26;;;;;;;6.12;4.30;;;;;;;16.36;68.79;99088.03;1741725;82;21626;-77
2021/05/30 06:25:52;;;;;;;6.08;4.60;;;;;;;16.57;68.40;99086.75;1755038;81;21568;-75
2021/05/30 06:28:18;;;;;;;7.55;5.25;;;;;;;16.67;68.10;99093.61;1745168;81;21088;-76
2021/05/30 06:30:47;;;;;;;6.83;4.67;;;;;;;16.75;68.12;99092.78;1749152;80;21088;-75
2021/05/30 06:34:57;;;;;;;5.60;5.00;;;;;;;17.00;67.63;99094.20;1817113;77;22229;-77
2021/05/30 06:37:24;;;;;;;7.03;5.30;;;;;;;17.15;66.21;99105.91;1795437;78;21046;-75
2021/05/30 06:39:52;;;;;;;10.10;5.08;;;;;;;17.24;65.34;99098.73;1777538;78;21047;-75
2021/05/30 06:42:18;;;;;;;7.60;6.08;;;;;;;17.28;65.19;99103.24;1778725;78;21542;-75
2021/05/30 06:44:45;;;;;;;8.43;5.28;;;;;;;17.46;64.60;99107.07;1791804;78;21042;-74
2021/05/30 06:47:12;;;;;;;7.00;5.60;;;;;;;17.76;64.28;99108.20;1730428;81;21458;-74
2021/05/30 06:49:38;;;;;;;6.40;4.85;;;;;;;18.03;63.64;99110.18;1784907;80;21031;-74
2021/05/30 06:52:05;;;;;;;7.75;4.58;;;;;;;18.14;62.29;99112.45;1742464;81;21069;-74
2021/05/30 06:54:31;;;;;;;7.05;6.05;;;;;;;18.18;62.57;99111.13;1741931;81;21628;-74
2021/05/30 06:56:58;;;;;;;5.97;4.67;;;;;;;18.28;62.07;99124.80;1719277;81;21561;-74
2021/05/30 06:59:24;;;;;;;5.12;4.53;;;;;;;18.36;61.37;99114.56;1720232;81;21652;-75
2021/05/30 07:01:50;;;;;;;5.30;4.35;;;;;;;18.43;61.08;99125.73;1725701;81;21020;-74
2021/05/30 07:04:17;;;;;;;6.50;5.20;;;;;;;18.40;59.14;99131.45;1729250;81;21093;-74
2021/05/30 07:06:45;;;;;;;4.65;3.60;;;;;;;18.17;60.03;99131.34;1726424;81;21052;-75
2021/05/30 07:09:12;;;;;;;7.65;6.10;;;;;;;18.04;59.93;99134.56;1722896;83;21089;-75
2021/05/30 07:11:38;;;;;;;7.92;5.05;;;;;;;17.98;60.49;99140.11;1723882;81;21010;-75
2021/05/30 07:14:04;;;;;;;6.37;5.30;;;;;;;17.87;60.81;99143.62;1718447;82;21616;-75
2021/05/30 07:16:31;;;;;;;7.22;4.40;;;;;;;17.75;61.01;99141.30;1719537;82;21536;-74
2021/05/30 07:18:58;;;;;;;5.10;4.60;;;;;;;17.63;60.52;99135.44;1743078;81;21586;-73
2021/05/30 07:21:25;;;;;;;4.90;4.40;;;;;;;17.45;61.09;99138.30;1740472;81;21058;-73
2021/05/30 07:23:52;;;;;;;7.15;6.40;;;;;;;17.37;61.23;99142.32;1725543;81;21076;-74
2021/05/30 07:26:19;;;;;;;10.35;5.12;;;;;;;17.32;61.05;99137.97;1737929;81;21133;-73
2021/05/30 07:28:45;;;;;;;5.28;3.90;;;;;;;17.28;60.60;99136.64;1719532;81;21067;-74
2021/05/30 07:31:16;;;;;;;4.92;4.42;;;;;;;17.37;61.07;99138.31;1727191;81;21077;-75
2021/05/30 07:33:43;;;;;;;6.62;4.55;;;;;;;17.42;61.12;99138.64;1688729;85;21733;-75
2021/05/30 07:36:10;;;;;;;5.17;4.58;;;;;;;17.47;61.22;99138.97;1680365;84;21058;-74
2021/05/30 07:38:36;;;;;;;6.30;4.55;;;;;;;17.52;61.52;99141.98;1693026;83;21093;-75
2021/05/30 07:41:03;;;;;;;8.18;5.00;;;;;;;17.58;61.20;99143.64;1702008;83;21401;-75
2021/05/30 07:43:30;;;;;;;9.08;7.70;;;;;;;17.64;60.96;99144.31;1721974;83;21025;-75
2021/05/30 07:45:56;;;;;;;6.40;5.55;;;;;;;17.64;61.15;99148.33;1686965;84;21038;-75
2021/05/30 07:48:22;;;;;;;7.37;5.55;;;;;;;17.65;61.20;99143.31;1710225;84;21093;-75
2021/05/30 07:50:48;;;;;;;6.47;5.75;;;;;;;17.68;60.92;99146.98;1688679;83;21060;-75
2021/05/30 07:53:15;;;;;;;7.78;5.10;;;;;;;17.67;60.88;99147.98;1696715;83;21093;-72
2021/05/30 07:55:44;;;;;;;4.00;3.52;;;;;;;17.68;60.77;99146.46;1692969;83;21087;-75
2021/05/30 07:58:11;;;;;;;11.15;5.35;;;;;;;17.68;59.79;99141.11;1691120;83;21395;-74
2021/05/30 08:00:38;;;;;;;8.25;4.78;;;;;;;17.72;60.46;99135.45;1701895;82;21101;-75
2021/05/30 08:03:05;;;;;;;6.45;4.33;;;;;;;17.84;60.26;99138.94;1731557;82;21122;-75
2021/05/30 08:05:31;;;;;;;7.08;5.00;;;;;;;17.80;60.99;99138.09;1710682;82;21109;-79
2021/05/30 08:07:57;;;;;;;5.92;4.72;;;;;;;17.68;61.12;99145.64;1711389;82;21058;-76
2021/05/30 08:10:26;;;;;;;4.30;3.67;;;;;;;17.60;61.56;99147.82;1708831;83;21086;-76
2021/05/30 08:12:53;;;;;;;4.95;3.33;;;;;;;17.68;60.59;99141.11;1719231;82;21597;-76
2021/05/30 08:15:20;;;;;;;4.85;3.45;;;;;;;17.64;60.26;99141.64;1721348;83;21011;-75
2021/05/30 08:17:48;;;;;;;3.92;3.50;;;;;;;17.55;60.09;99149.34;1718727;83;21054;-75
2021/05/30 08:20:17;;;;;;;4.15;3.58;;;;;;;17.46;60.48;99147.98;1700912;83;21149;-78
2021/05/30 08:22:43;;;;;;;3.80;3.40;;;;;;;17.47;60.85;99136.81;1700134;83;21082;-78
2021/05/30 08:25:12;;;;;;;3.35;3.05;;;;;;;17.58;60.84;99144.98;1708621;82;21094;-76
2021/05/30 08:27:40;;;;;;;3.50;2.95;;;;;;;17.80;60.15;99152.32;1724448;82;21605;-76
2021/05/30 08:30:08;;;;;;;3.30;3.00;;;;;;;17.91;59.18;99148.45;1662065;86;21090;-75
2021/05/30 08:32:35;;;;;;;5.45;3.25;;;;;;;17.91;58.59;99144.95;1683088;84;21174;-75
2021/05/30 08:35:01;;;;;;;4.08;3.27;;;;;;;17.87;58.58;99148.97;1696141;84;21648;-75
2021/05/30 08:37:27;;;;;;;7.17;3.40;;;;;;;17.90;59.21;99152.63;1713164;84;21073;-76
2021/05/30 08:39:54;;;;;;;3.58;3.27;;;;;;;18.05;59.59;99146.13;1695185;84;21078;-77
2021/05/30 08:42:21;;;;;;;4.70;3.08;;;;;;;18.18;59.01;99152.61;1685035;82;21125;-77
2021/05/30 08:44:49;;;;;;;4.80;3.00;;;;;;;18.22;58.04;99156.27;1689343;84;22345;-77
2021/05/30 08:47:16;;;;;;;4.70;3.60;;;;;;;18.17;57.35;99156.28;1706482;83;21062;-77
2021/05/30 08:49:42;;;;;;;4.30;3.90;;;;;;;18.13;57.59;99157.64;1676638;84;21103;-78
2021/05/30 08:52:10;;;;;;;5.08;3.40;;;;;;;18.12;58.25;99153.77;1713115;82;21094;-78
2021/05/30 08:54:36;;;;;;;3.90;2.95;;;;;;;18.14;58.69;99159.28;1732038;83;21081;-77
2021/05/30 08:57:03;;;;;;;4.30;3.62;;;;;;;18.28;58.88;99160.94;1722460;83;21561;-78
2021/05/30 08:59:31;;;;;;;5.08;3.20;;;;;;;18.28;59.04;99161.75;1702712;83;21085;-79
2021/05/30 09:02:01;;;;;;;3.77;3.20;;;;;;;18.27;58.88;99163.27;1694640;84;21092;-78
2021/05/30 09:04:34;;;;;;;3.70;3.05;;;;;;;18.23;58.03;99164.63;1697009;83;21082;-79
2021/05/30 09:07:01;;;;;;;3.72;2.90;;;;;;;18.15;58.36;99167.65;1706256;83;21093;-85
2021/05/30 09:09:47;;;;;;;4.72;3.05;;;;;;;18.02;58.38;99163.34;1732959;83;21223;-81
2021/05/30 09:12:29;;;;;;;3.70;3.25;;;;;;;17.98;58.65;99167.34;1701497;83;22011;-78
2021/05/30 09:14:56;;;;;;;3.40;3.10;;;;;;;17.92;58.85;99180.06;1719224;83;21105;-77
2021/05/30 09:17:26;;;;;;;4.08;3.40;;;;;;;17.98;59.14;99180.23;1710967;83;21345;-77
2021/05/30 09:19:55;;;;;;;4.03;3.40;;;;;;;17.96;59.47;99175.55;1697745;84;21615;-76
2021/05/30 09:22:38;;;;;;;4.25;3.77;;;;;;;17.96;59.71;99174.21;1695889;83;21101;-77
2021/05/30 09:25:17;;;;;;;6.42;3.50;;;;;;;17.94;59.93;99178.06;1701495;84;21626;-77
2021/05/30 09:27:53;;;;;;;3.47;3.05;;;;;;;17.93;60.02;99177.69;1697017;84;21608;-79
2021/05/30 09:30:38;;;;;;;3.95;2.90;;;;;;;17.87;59.30;99184.56;1695864;83;21110;-76
2021/05/30 09:33:14;;;;;;;4.62;3.10;;;;;;;17.74;59.23;99175.72;1687913;85;21153;-77
2021/05/30 09:35:47;;;;;;;4.00;3.35;;;;;;;17.62;59.90;99186.41;1692829;84;21086;-76
2021/05/30 09:38:32;;;;;;;4.37;3.00;;;;;;;17.39;60.76;99184.39;1726390;82;21184;-76
2021/05/30 09:41:14;;;;;;;6.45;3.40;;;;;;;17.28;61.47;99195.44;1694326;83;21245;-76
2021/05/30 09:43:54;;;;;;;3.62;3.27;;;;;;;17.28;61.60;99198.11;1714326;82;21054;-77
2021/05/30 09:46:33;;;;;;;4.42;3.12;;;;;;;17.16;61.42;99199.75;1718626;83;21044;-77
2021/05/30 09:48:59;;;;;;;4.65;3.60;;;;;;;17.02;61.73;99201.70;1724478;82;21020;-77
2021/05/30 09:51:38;;;;;;;4.87;3.33;;;;;;;16.91;62.09;99202.03;1711735;82;21069;-77
2021/05/30 09:54:19;;;;;;;4.40;3.50;;;;;;;16.89;62.34;99202.14;1699256;83;21026;-76
2021/05/30 09:56:53;;;;;;;4.28;3.30;;;;;;;16.95;61.45;99200.70;1714560;82;21066;-77
2021/05/30 09:59:24;;;;;;;;;;;;;;;16.81;61.32;99208.80;1691745;85;21601;-77
2021/05/30 10:02:00;;;;;;;5.45;3.50;;;;;;;16.67;61.78;99212.92;1703571;84;20316;-77
2021/05/30 10:04:34;;;;;;;4.50;3.40;;;;;;;16.52;62.35;99212.20;1709620;84;21041;-77
2021/05/30 10:07:05;;;;;;;5.55;3.30;;;;;;;16.54;62.35;99220.03;1688934;84;21170;-77
2021/05/30 10:09:33;;;;;;;6.30;4.00;;;;;;;16.49;62.42;99223.17;1699071;84;21587;-77
2021/05/30 10:11:59;;;;;;;5.12;3.70;;;;;;;16.41;62.68;99219.62;1723609;83;21062;-77
2021/05/30 10:14:27;;;;;;;3.90;3.47;;;;;;;16.31;63.34;99212.58;1693417;83;21011;-77
2021/05/30 10:16:53;;;;;;;4.30;3.75;;;;;;;16.37;63.37;99225.28;1709348;84;21042;-77
2021/05/30 10:19:31;;;;;;;5.10;3.55;;;;;;;16.36;63.30;99222.78;1710428;84;21096;-77
2021/05/30 10:21:59;;;;;;;4.75;4.22;;;;;;;16.27;63.41;99220.56;1700702;84;21031;-77
2021/05/30 10:24:26;;;;;;;4.00;3.60;;;;;;;16.20;64.08;99220.36;1684044;85;21070;-77
2021/05/30 10:27:18;;;;;;;5.25;3.90;;;;;;;16.26;64.54;99222.06;1700882;84;21145;-77
2021/05/30 10:30:15;;;;;;;5.80;3.92;;;;;;;16.38;64.45;99232.78;1706267;84;21065;-77
2021/05/30 10:32:46;;;;;;;6.12;3.70;;;;;;;16.37;64.54;99238.63;1705199;84;21747;-78
2021/05/30 10:35:23;;;;;;;7.30;3.77;;;;;;;16.27;65.00;99239.75;1686131;84;21103;-76
2021/05/30 10:37:54;;;;;;;7.08;3.75;;;;;;;16.19;65.30;99241.36;1701539;84;21051;-77
2021/05/30 10:40:28;;;;;;;6.15;4.10;;;;;;;16.28;65.10;99246.73;1698841;84;21027;-77
2021/05/30 10:43:13;;;;;;;6.90;4.03;;;;;;;16.21;65.01;99242.53;1731754;83;21066;-76
2021/05/30 10:45:53;;;;;;;6.08;3.75;;;;;;;16.06;65.06;99238.25;1731406;83;21087;-79
2021/05/30 10:48:19;;;;;;;4.87;3.87;;;;;;;15.97;65.21;99247.19;1703598;84;21059;-78
2021/05/30 10:51:03;;;;;;;4.62;4.15;;;;;;;16.03;65.08;99241.24;1703468;83;21181;-78
2021/05/30 10:53:37;;;;;;;5.33;4.40;;;;;;;16.00;65.60;99238.90;1720486;82;21677;-78
2021/05/30 10:56:37;;;;;;;6.03;3.80;;;;;;;16.02;66.02;99242.23;1667134;86;21080;-78
2021/05/30 10:59:15;;;;;;;4.97;4.00;;;;;;;16.11;65.61;99237.80;1669669;86;21093;-78
2021/05/30 11:01:50;;;;;;;4.80;4.08;;;;;;;16.14;65.42;99236.98;1633753;86;21214;-78
2021/05/30 11:04:29;;;;;;;7.15;3.75;;;;;;;16.07;65.07;99229.27;1661106;84;21037;-78
2021/05/30 11:07:15;;;;;;;5.10;4.12;;;;;;;16.08;65.46;99238.95;1635667;86;21535;-78
2021/05/30 11:09:58;;;;;;;5.20;4.12;;;;;;;16.18;65.29;99242.34;1649909;86;21148;-78
2021/05/30 11:12:32;;;;;;;4.95;4.40;;;;;;;16.15;65.38;99237.34;1669457;86;21573;-77
2021/05/30 11:15:14;;;;;;;4.70;3.70;;;;;;;16.17;66.00;99239.33;1669591;86;21097;-77
2021/05/30 11:17:47;;;;;;;7.42;4.12;;;;;;;16.32;65.78;99242.78;1669898;86;21046;-76
2021/05/30 11:20:18;;;;;;;5.03;3.95;;;;;;;16.29;65.05;99248.41;1669743;86;21545;-77
2021/05/30 11:22:52;;;;;;;6.53;4.15;;;;;;;16.19;65.52;99259.20;1643628;87;21047;-77
2021/05/30 11:25:45;;;;;;;4.83;4.00;;;;;;;16.19;65.33;99262.70;1652716;86;21608;-77
2021/05/30 11:28:13;;;;;;;6.85;4.40;;;;;;;16.26;65.06;99270.91;1667505;86;21608;-76
2021/05/30 11:30:50;;;;;;;6.33;3.87;;;;;;;16.16;65.28;99272.36;1661460;85;21081;-77
2021/05/30 11:33:28;;;;;;;4.87;3.92;;;;;;;16.14;65.56;99271.67;1659538;86;21098;-76
2021/05/30 11:35:59;;;;;;;7.03;4.67;;;;;;;16.21;65.07;99282.06;1661373;86;21077;-76
2021/05/30 11:38:35;;;;;;;7.37;6.17;;;;;;;16.19;65.08;99286.70;1653536;86;21069;-76
2021/05/30 11:41:35;;;;;;;7.53;5.80;;;;;;;16.11;65.53;99278.63;1651781;86;21712;-76
2021/05/30 11:44:14;;;;;;;7.37;5.15;;;;;;;16.11;65.68;99288.47;1649757;86;22270;-77
2021/05/30 11:46:48;;;;;;;6.78;4.97;;;;;;;16.13;65.19;99293.99;1661097;86;21594;-77